Weather at Ronald Reagan Washington National Airport

Public forecast

Using degrees Fahrenheit for public forecast. Weather courtesy of forecast.io.

Current aviation weather report (METAR) for Ronald Reagan Washington National Airport

Retrieved 2021/10/24 08:52 UTC (12 minutes ago):

KDCA 240852Z 00000KT 10SM OVC070 14/06 A3013 RMK AO2 SLP202 60000 T01390061 51007

Aviation forecast (TAF) for Ronald Reagan Washington National Airport

Retrieved 2021/10/24 06:30 UTC (3 hours ago):

TAF KDCA 240528Z 2406/2512 35009KT P6SM OVC100 FM240800 VRB03KT P6SM OVC100 FM241500 18009KT P6SM FEW050 SCT090 FM242300 15007KT P6SM SCT250 FM250400 18008KT P6SM FEW200 SCT250 WS020/20035KT